createdAt,value
2018-08-24T00:12:30.263Z,20.67
2018-08-24T00:17:36.721Z,11.37
2018-08-24T00:28:31.127Z,10.00
2018-08-24T00:33:55.771Z,10.50
2018-08-24T00:39:01.050Z,10.33
2018-08-24T01:11:51.131Z,13.37
2018-08-24T01:16:59.802Z,16.23
2018-08-24T01:22:02.893Z,14.63
2018-08-24T01:27:17.606Z,11.93
2018-08-24T01:32:20.734Z,12.20
2018-08-24T01:37:23.790Z,13.40
2018-08-24T01:42:26.813Z,12.73
2018-08-24T01:47:29.854Z,11.40
2018-08-24T01:52:32.911Z,10.77
2018-08-24T01:57:35.967Z,13.27
2018-08-24T02:02:39.075Z,20.90
2018-08-24T02:07:42.105Z,16.57
2018-08-24T02:12:50.497Z,13.07
2018-08-24T02:17:58.935Z,20.10
2018-08-24T02:23:09.022Z,14.50
2018-08-24T02:28:12.094Z,18.77
2018-08-24T02:33:15.173Z,15.93
2018-08-24T02:38:18.259Z,18.57
2018-08-24T02:43:21.370Z,13.07
2018-08-24T02:48:24.502Z,10.73
2018-08-24T02:53:27.650Z,12.00
2018-08-24T02:58:30.721Z,12.80
2018-08-24T03:03:33.792Z,10.73
2018-08-24T03:08:36.907Z,14.23
2018-08-24T03:13:40.039Z,16.70
2018-08-24T03:18:43.171Z,15.27
2018-08-24T03:23:46.399Z,13.50
2018-08-24T03:28:49.474Z,12.97
2018-08-24T03:33:52.561Z,16.67
2018-08-24T03:38:55.697Z,13.00
2018-08-24T03:43:58.924Z,15.43
2018-08-24T03:49:02.059Z,15.13
2018-08-24T03:54:10.764Z,10.97
2018-08-24T03:59:13.873Z,14.57
2018-08-24T04:04:17.104Z,12.20
2018-08-24T04:09:20.219Z,12.40
2018-08-24T04:14:23.340Z,14.50
2018-08-24T04:19:27.464Z,21.07
2018-08-24T04:24:30.494Z,13.30
2018-08-24T04:29:33.660Z,13.67
2018-08-24T04:34:36.760Z,12.70
2018-08-24T04:39:41.651Z,13.03
2018-08-24T04:44:44.807Z,19.80
2018-08-24T04:49:48.147Z,18.60
2018-08-24T04:54:56.913Z,18.50
2018-08-24T05:00:00.198Z,20.20
2018-08-24T05:05:13.364Z,23.37
2018-08-24T05:10:17.192Z,21.77
2018-08-24T05:15:30.072Z,26.27
2018-08-24T05:20:42.930Z,27.30
2018-08-24T05:25:50.660Z,26.10
2018-08-24T05:30:53.900Z,27.47
2018-08-24T05:36:01.588Z,42.47
2018-08-24T05:41:04.936Z,89.90
2018-08-24T05:46:08.043Z,62.97
2018-08-24T05:51:11.623Z,42.80
2018-08-24T05:56:14.848Z,32.27
2018-08-24T06:01:18.012Z,36.93
2018-08-24T06:06:21.234Z,25.17
2018-08-24T06:11:24.451Z,23.63
2018-08-24T06:16:27.543Z,21.73
2018-08-24T06:21:30.700Z,28.43
2018-08-24T06:26:33.883Z,24.47
2018-08-24T06:31:37.075Z,28.97
2018-08-24T06:36:40.388Z,27.43
2018-08-24T06:41:44.235Z,25.13
2018-08-24T06:46:47.246Z,26.27
2018-08-24T06:51:50.355Z,28.00
2018-08-24T06:57:05.729Z,25.07
2018-08-24T07:02:08.811Z,23.03
2018-08-24T07:07:11.930Z,23.87
2018-08-24T07:12:15.075Z,21.77
2018-08-24T07:17:23.501Z,19.33
2018-08-24T07:22:26.612Z,18.13
2018-08-24T07:27:29.738Z,16.73
2018-08-24T07:32:32.803Z,16.87
2018-08-24T07:37:35.879Z,13.93
2018-08-24T07:42:38.980Z,13.80
2018-08-24T07:47:42.103Z,13.07
2018-08-24T07:52:45.224Z,14.60
2018-08-24T07:57:48.361Z,14.87
2018-08-24T08:02:51.381Z,15.23
2018-08-24T08:07:54.397Z,20.50
2018-08-24T08:12:57.526Z,15.10
2018-08-24T08:18:00.569Z,13.87
2018-08-24T08:23:03.691Z,18.53
2018-08-24T08:28:06.727Z,15.57
2018-08-24T08:33:10.140Z,13.87
2018-08-24T08:38:13.192Z,11.17
2018-08-24T08:43:16.380Z,10.50
2018-08-24T08:48:19.407Z,14.00
2018-08-24T08:53:22.437Z,6.63
2018-08-24T08:58:30.966Z,7.60
2018-08-24T09:03:33.978Z,5.57
2018-08-24T09:08:36.989Z,7.83
2018-08-24T09:13:39.989Z,4.83
2018-08-24T09:18:48.514Z,16.27
2018-08-24T09:23:57.035Z,4.33
2018-08-24T09:29:04.614Z,4.03
2018-08-24T09:34:07.629Z,5.23
2018-08-24T09:39:10.714Z,5.10
2018-08-24T09:44:13.831Z,7.23
2018-08-24T09:49:22.281Z,6.23
2018-08-24T09:54:25.309Z,6.20
2018-08-24T09:59:28.363Z,7.13
2018-08-24T10:04:36.854Z,5.37
2018-08-24T10:09:39.973Z,6.90
2018-08-24T10:14:43.022Z,3.70
2018-08-24T10:19:46.034Z,8.83
2018-08-24T10:24:49.066Z,4.77
2018-08-24T10:29:52.162Z,5.63
2018-08-24T10:34:55.103Z,7.67
2018-08-24T10:39:58.117Z,5.90
2018-08-24T10:45:01.131Z,8.40
2018-08-24T10:50:04.180Z,6.40
2018-08-24T10:55:07.351Z,6.53
2018-08-24T11:00:10.407Z,2.87
2018-08-24T11:05:13.445Z,3.43
2018-08-24T11:10:16.458Z,6.43
2018-08-24T11:15:19.479Z,4.70
2018-08-24T11:20:22.526Z,4.43
2018-08-24T11:25:25.600Z,4.53
2018-08-24T11:30:28.628Z,3.50
2018-08-24T11:35:31.661Z,3.97
2018-08-24T11:40:34.921Z,4.03
2018-08-24T11:45:37.966Z,4.97
2018-08-24T11:50:41.006Z,4.73
2018-08-24T11:55:44.070Z,5.70
2018-08-24T12:00:47.119Z,3.87
2018-08-24T12:05:50.251Z,6.50
2018-08-24T12:10:53.289Z,4.40
2018-08-24T12:15:56.314Z,6.00
2018-08-24T12:20:59.366Z,5.80
2018-08-24T12:26:02.926Z,5.30
2018-08-24T12:31:05.983Z,4.60
2018-08-24T12:36:12.278Z,6.90
2018-08-24T12:41:15.335Z,5.80
2018-08-24T12:46:18.324Z,6.23
2018-08-24T12:51:21.759Z,6.07
2018-08-24T12:56:24.997Z,7.77
2018-08-24T13:01:28.020Z,7.87
2018-08-24T13:06:31.059Z,8.23
2018-08-24T13:11:34.070Z,7.73
2018-08-24T13:16:37.082Z,7.07
2018-08-24T13:21:40.162Z,6.27
2018-08-24T13:26:43.179Z,6.30
2018-08-24T13:31:46.182Z,11.73
2018-08-24T13:36:49.223Z,6.10
2018-08-24T13:41:52.339Z,7.20
2018-08-24T13:46:55.355Z,7.43
2018-08-24T13:52:10.475Z,7.20
2018-08-24T13:57:13.558Z,5.97
2018-08-24T14:02:16.585Z,7.83
2018-08-24T14:07:19.610Z,11.03
2018-08-24T14:12:22.626Z,10.00
2018-08-24T14:17:25.642Z,6.60
2018-08-24T14:22:28.677Z,4.67
2018-08-24T14:27:32.039Z,6.80
2018-08-24T14:32:35.915Z,6.57
2018-08-24T14:37:39.315Z,7.07
2018-08-24T14:42:42.349Z,6.37
2018-08-24T14:47:45.383Z,9.23
2018-08-24T14:52:48.425Z,10.13
2018-08-24T14:57:51.483Z,7.50
2018-08-24T15:02:54.515Z,4.83
2018-08-24T15:07:57.549Z,8.83
2018-08-24T15:13:00.586Z,6.13
2018-08-24T15:18:03.612Z,7.00
2018-08-24T15:23:06.739Z,6.93
2018-08-24T15:28:09.666Z,6.00
2018-08-24T15:33:12.701Z,8.40
2018-08-24T15:38:15.699Z,6.60
2018-08-24T15:43:18.803Z,6.63
2018-08-24T15:48:21.831Z,8.13
2018-08-24T15:53:24.849Z,16.03
2018-08-24T15:58:27.849Z,16.17
2018-08-24T16:03:30.878Z,5.60
2018-08-24T16:08:33.906Z,8.47
2018-08-24T16:13:36.925Z,7.17
2018-08-24T16:18:39.978Z,6.07
2018-08-24T16:23:43.023Z,8.20
2018-08-24T16:28:46.039Z,12.50
2018-08-24T16:33:49.969Z,7.00
2018-08-24T16:38:53.000Z,7.63
2018-08-24T16:43:55.997Z,7.27
2018-08-24T16:48:59.040Z,55.70
2018-08-24T16:54:02.045Z,24.50
2018-08-24T16:59:05.050Z,7.67
2018-08-24T17:04:08.088Z,29.07
2018-08-24T17:09:12.317Z,11.30
2018-08-24T17:14:15.354Z,11.90
2018-08-24T17:19:18.358Z,6.90
2018-08-24T17:24:21.386Z,4.70
2018-08-24T17:29:24.425Z,11.13
2018-08-24T17:34:27.449Z,21.77
2018-08-24T17:39:30.458Z,9.40
2018-08-24T17:44:33.478Z,10.73
2018-08-24T17:49:36.499Z,6.57
2018-08-24T17:54:39.498Z,10.13
2018-08-24T17:59:42.522Z,5.73
2018-08-24T18:04:45.599Z,6.43
2018-08-24T18:09:48.601Z,10.17
2018-08-24T18:14:51.691Z,4.20
2018-08-24T18:19:56.692Z,4.77
2018-08-24T18:24:59.702Z,4.17
2018-08-24T18:30:02.749Z,4.07
2018-08-24T18:35:05.835Z,6.50
2018-08-24T18:40:10.894Z,4.50
2018-08-24T18:45:13.929Z,5.60
2018-08-24T18:50:16.995Z,5.43
2018-08-24T18:55:20.052Z,6.40
2018-08-24T19:00:23.135Z,8.03
2018-08-24T19:05:26.283Z,3.27
2018-08-24T19:10:31.098Z,4.70
2018-08-24T19:15:34.254Z,3.43
2018-08-24T19:20:43.892Z,5.10
2018-08-24T19:25:46.883Z,4.63
2018-08-24T19:30:50.018Z,3.77
2018-08-24T19:35:53.083Z,5.20
2018-08-24T19:43:06.273Z,7.97
2018-08-24T19:48:15.119Z,3.43
2018-08-24T19:53:24.303Z,7.80
2018-08-24T19:58:32.865Z,4.53
2018-08-24T20:31:14.100Z,5.17
2018-08-24T20:53:11.346Z,4.50
2018-08-24T21:03:43.135Z,6.60
2018-08-24T21:14:13.947Z,8.00
2018-08-24T21:30:36.617Z,4.77
2018-08-24T21:35:39.677Z,3.17
2018-08-24T22:09:17.704Z,2.70
2018-08-24T22:19:58.334Z,10.80
2018-08-24T22:25:02.303Z,4.97
2018-08-24T22:35:43.101Z,18.37
2018-08-24T22:40:47.055Z,4.63
2018-08-24T22:45:54.945Z,4.87
2018-08-24T22:51:04.003Z,5.40
